sensor_id;sensor_type;location;lat;lon;timestamp;temperature;humidity
17437;DHT22;8836;52.272;5.134;2022-08-01T00:01:59;25.90;99.90
17437;DHT22;8836;52.272;5.134;2022-08-01T00:04:27;25.90;99.90
17437;DHT22;8836;52.272;5.134;2022-08-01T00:06:54;25.90;99.90
17437;DHT22;8836;52.272;5.134;2022-08-01T00:09:21;25.90;99.90
17437;DHT22;8836;52.272;5.134;2022-08-01T00:11:48;25.90;99.90
17437;DHT22;8836;52.272;5.134;2022-08-01T00:14:15;25.90;99.90
17437;DHT22;8836;52.272;5.134;2022-08-01T00:16:42;25.90;99.90
17437;DHT22;8836;52.272;5.134;2022-08-01T00:19:10;25.90;99.90
17437;DHT22;8836;52.272;5.134;2022-08-01T00:21:37;25.90;99.90
17437;DHT22;8836;52.272;5.134;2022-08-01T00:24:04;26.00;99.90
17437;DHT22;8836;52.272;5.134;2022-08-01T00:26:31;26.00;99.90
17437;DHT22;8836;52.272;5.134;2022-08-01T00:28:58;25.90;99.90
17437;DHT22;8836;52.272;5.134;2022-08-01T00:31:25;26.00;99.90
17437;DHT22;8836;52.272;5.134;2022-08-01T00:33:52;26.00;99.90
17437;DHT22;8836;52.272;5.134;2022-08-01T00:36:20;26.00;99.90
17437;DHT22;8836;52.272;5.134;2022-08-01T00:38:47;26.00;99.90
17437;DHT22;8836;52.272;5.134;2022-08-01T00:41:17;26.00;99.90
17437;DHT22;8836;52.272;5.134;2022-08-01T00:43:47;26.00;99.90
17437;DHT22;8836;52.272;5.134;2022-08-01T00:46:14;26.00;99.90
17437;DHT22;8836;52.272;5.134;2022-08-01T00:48:41;25.90;99.90
17437;DHT22;8836;52.272;5.134;2022-08-01T00:51:08;26.00;99.90
17437;DHT22;8836;52.272;5.134;2022-08-01T00:53:37;25.90;99.90
17437;DHT22;8836;52.272;5.134;2022-08-01T00:56:05;26.00;99.90
17437;DHT22;8836;52.272;5.134;2022-08-01T00:58:34;26.00;99.90
17437;DHT22;8836;52.272;5.134;2022-08-01T01:01:01;26.00;99.90
17437;DHT22;8836;52.272;5.134;2022-08-01T01:03:28;26.00;99.90
17437;DHT22;8836;52.272;5.134;2022-08-01T01:06:04;26.00;99.90
17437;DHT22;8836;52.272;5.134;2022-08-01T01:08:43;26.00;99.90
17437;DHT22;8836;52.272;5.134;2022-08-01T01:11:26;26.00;99.90
17437;DHT22;8836;52.272;5.134;2022-08-01T01:14:03;26.00;99.90
17437;DHT22;8836;52.272;5.134;2022-08-01T01:16:37;26.00;99.90
17437;DHT22;8836;52.272;5.134;2022-08-01T01:19:13;26.00;99.90
17437;DHT22;8836;52.272;5.134;2022-08-01T01:22:00;26.00;99.90
17437;DHT22;8836;52.272;5.134;2022-08-01T01:24:55;26.00;99.90
17437;DHT22;8836;52.272;5.134;2022-08-01T01:27:41;26.00;99.90
17437;DHT22;8836;52.272;5.134;2022-08-01T01:30:15;26.00;99.90
17437;DHT22;8836;52.272;5.134;2022-08-01T01:32:44;25.90;99.90
17437;DHT22;8836;52.272;5.134;2022-08-01T01:35:20;25.90;99.90
17437;DHT22;8836;52.272;5.134;2022-08-01T01:37:56;26.00;99.90
17437;DHT22;8836;52.272;5.134;2022-08-01T01:40:27;26.00;99.90
17437;DHT22;8836;52.272;5.134;2022-08-01T01:42:56;26.00;99.90
17437;DHT22;8836;52.272;5.134;2022-08-01T01:45:26;25.90;99.90
17437;DHT22;8836;52.272;5.134;2022-08-01T01:47:56;26.00;99.90
17437;DHT22;8836;52.272;5.134;2022-08-01T01:50:25;25.90;99.90
17437;DHT22;8836;52.272;5.134;2022-08-01T01:52:54;24.80;99.90
17437;DHT22;8836;52.272;5.134;2022-08-01T01:55:23;26.00;99.90
17437;DHT22;8836;52.272;5.134;2022-08-01T01:57:53;26.00;99.90
17437;DHT22;8836;52.272;5.134;2022-08-01T02:00:23;25.90;99.90
17437;DHT22;8836;52.272;5.134;2022-08-01T02:02:54;25.90;99.90
17437;DHT22;8836;52.272;5.134;2022-08-01T02:05:24;25.90;99.90
17437;DHT22;8836;52.272;5.134;2022-08-01T02:07:54;25.90;99.90
17437;DHT22;8836;52.272;5.134;2022-08-01T02:10:22;26.20;99.90
17437;DHT22;8836;52.272;5.134;2022-08-01T02:12:52;25.90;99.90
17437;DHT22;8836;52.272;5.134;2022-08-01T02:15:20;26.00;99.90
17437;DHT22;8836;52.272;5.134;2022-08-01T02:17:51;25.90;99.90
17437;DHT22;8836;52.272;5.134;2022-08-01T02:20:21;26.00;99.90
17437;DHT22;8836;52.272;5.134;2022-08-01T02:22:51;25.90;99.90
17437;DHT22;8836;52.272;5.134;2022-08-01T02:25:25;25.90;99.90
17437;DHT22;8836;52.272;5.134;2022-08-01T02:27:59;26.00;99.90
17437;DHT22;8836;52.272;5.134;2022-08-01T02:30:32;26.00;99.90
17437;DHT22;8836;52.272;5.134;2022-08-01T02:33:05;26.00;99.90
17437;DHT22;8836;52.272;5.134;2022-08-01T02:35:38;26.00;99.90
17437;DHT22;8836;52.272;5.134;2022-08-01T02:38:10;27.30;99.90
17437;DHT22;8836;52.272;5.134;2022-08-01T02:40:42;26.00;99.90
17437;DHT22;8836;52.272;5.134;2022-08-01T02:43:14;26.00;99.90
17437;DHT22;8836;52.272;5.134;2022-08-01T02:45:49;26.00;99.90
17437;DHT22;8836;52.272;5.134;2022-08-01T02:48:21;26.00;99.90
17437;DHT22;8836;52.272;5.134;2022-08-01T02:50:55;26.00;99.90
17437;DHT22;8836;52.272;5.134;2022-08-01T02:53:25;26.00;99.90
17437;DHT22;8836;52.272;5.134;2022-08-01T02:55:58;26.00;99.90
17437;DHT22;8836;52.272;5.134;2022-08-01T02:58:27;26.00;99.90
17437;DHT22;8836;52.272;5.134;2022-08-01T03:00:56;26.00;99.90
17437;DHT22;8836;52.272;5.134;2022-08-01T03:03:26;26.00;99.90
17437;DHT22;8836;52.272;5.134;2022-08-01T03:05:55;26.00;99.90
17437;DHT22;8836;52.272;5.134;2022-08-01T03:08:24;25.90;99.90
17437;DHT22;8836;52.272;5.134;2022-08-01T03:10:54;25.90;99.90
17437;DHT22;8836;52.272;5.134;2022-08-01T03:13:23;26.00;99.90
17437;DHT22;8836;52.272;5.134;2022-08-01T03:15:54;25.90;99.90
17437;DHT22;8836;52.272;5.134;2022-08-01T03:18:26;25.90;99.90
17437;DHT22;8836;52.272;5.134;2022-08-01T03:20:56;25.90;99.90
17437;DHT22;8836;52.272;5.134;2022-08-01T03:23:27;26.00;99.90
17437;DHT22;8836;52.272;5.134;2022-08-01T03:25:57;25.90;99.90
17437;DHT22;8836;52.272;5.134;2022-08-01T03:28:26;25.90;99.90
17437;DHT22;8836;52.272;5.134;2022-08-01T03:30:56;25.90;99.90
17437;DHT22;8836;52.272;5.134;2022-08-01T03:33:26;25.90;99.90
17437;DHT22;8836;52.272;5.134;2022-08-01T03:35:54;25.90;99.90
17437;DHT22;8836;52.272;5.134;2022-08-01T03:38:24;25.80;99.90
17437;DHT22;8836;52.272;5.134;2022-08-01T03:40:55;25.80;99.90
17437;DHT22;8836;52.272;5.134;2022-08-01T03:43:30;25.80;99.90
17437;DHT22;8836;52.272;5.134;2022-08-01T03:46:05;25.80;99.90
17437;DHT22;8836;52.272;5.134;2022-08-01T03:48:39;25.80;99.90
17437;DHT22;8836;52.272;5.134;2022-08-01T03:51:08;25.80;99.90
17437;DHT22;8836;52.272;5.134;2022-08-01T03:53:37;25.70;99.90
17437;DHT22;8836;52.272;5.134;2022-08-01T03:56:07;25.70;99.90
17437;DHT22;8836;52.272;5.134;2022-08-01T03:58:38;25.80;99.90
17437;DHT22;8836;52.272;5.134;2022-08-01T04:01:06;25.80;99.90
17437;DHT22;8836;52.272;5.134;2022-08-01T04:03:37;25.70;99.90
17437;DHT22;8836;52.272;5.134;2022-08-01T04:06:04;25.80;99.90
17437;DHT22;8836;52.272;5.134;2022-08-01T04:08:35;25.70;99.90
17437;DHT22;8836;52.272;5.134;2022-08-01T04:11:02;25.70;99.90
17437;DHT22;8836;52.272;5.134;2022-08-01T04:13:30;25.70;99.90
17437;DHT22;8836;52.272;5.134;2022-08-01T04:15:58;25.70;99.90
17437;DHT22;8836;52.272;5.134;2022-08-01T04:18:25;25.70;99.90
17437;DHT22;8836;52.272;5.134;2022-08-01T04:20:54;25.60;99.90
17437;DHT22;8836;52.272;5.134;2022-08-01T04:23:24;25.60;99.90
17437;DHT22;8836;52.272;5.134;2022-08-01T04:25:53;25.60;99.90
17437;DHT22;8836;52.272;5.134;2022-08-01T04:28:23;25.60;99.90
17437;DHT22;8836;52.272;5.134;2022-08-01T04:30:54;25.50;99.90
17437;DHT22;8836;52.272;5.134;2022-08-01T04:33:22;25.50;99.90
17437;DHT22;8836;52.272;5.134;2022-08-01T04:35:53;25.40;99.90
17437;DHT22;8836;52.272;5.134;2022-08-01T04:38:25;25.40;99.90
17437;DHT22;8836;52.272;5.134;2022-08-01T04:40:56;25.40;99.90
17437;DHT22;8836;52.272;5.134;2022-08-01T04:43:24;25.40;99.90
17437;DHT22;8836;52.272;5.134;2022-08-01T04:45:51;25.40;99.90
17437;DHT22;8836;52.272;5.134;2022-08-01T04:48:19;25.40;99.90
17437;DHT22;8836;52.272;5.134;2022-08-01T04:50:50;25.40;99.90
17437;DHT22;8836;52.272;5.134;2022-08-01T04:53:19;25.40;99.90
17437;DHT22;8836;52.272;5.134;2022-08-01T04:55:47;25.30;99.90
17437;DHT22;8836;52.272;5.134;2022-08-01T04:58:18;25.30;99.90
17437;DHT22;8836;52.272;5.134;2022-08-01T05:00:45;25.40;99.90
17437;DHT22;8836;52.272;5.134;2022-08-01T05:03:12;25.40;99.90
17437;DHT22;8836;52.272;5.134;2022-08-01T05:05:39;25.40;99.90
17437;DHT22;8836;52.272;5.134;2022-08-01T05:08:06;25.40;99.90
17437;DHT22;8836;52.272;5.134;2022-08-01T05:10:38;25.50;99.90
17437;DHT22;8836;52.272;5.134;2022-08-01T05:13:05;25.50;99.90
17437;DHT22;8836;52.272;5.134;2022-08-01T05:15:33;25.50;99.90
17437;DHT22;8836;52.272;5.134;2022-08-01T05:18:02;25.50;99.90
17437;DHT22;8836;52.272;5.134;2022-08-01T05:20:29;25.50;99.90
17437;DHT22;8836;52.272;5.134;2022-08-01T05:22:57;25.50;99.90
17437;DHT22;8836;52.272;5.134;2022-08-01T05:25:24;25.50;99.90
17437;DHT22;8836;52.272;5.134;2022-08-01T05:27:52;25.50;99.90
17437;DHT22;8836;52.272;5.134;2022-08-01T05:30:19;25.60;99.90
17437;DHT22;8836;52.272;5.134;2022-08-01T05:32:46;25.50;99.90
17437;DHT22;8836;52.272;5.134;2022-08-01T05:35:13;25.60;99.90
17437;DHT22;8836;52.272;5.134;2022-08-01T05:37:40;25.60;99.90
17437;DHT22;8836;52.272;5.134;2022-08-01T05:40:08;25.60;99.90
17437;DHT22;8836;52.272;5.134;2022-08-01T05:42:36;25.60;99.90
17437;DHT22;8836;52.272;5.134;2022-08-01T05:45:05;25.60;99.90
17437;DHT22;8836;52.272;5.134;2022-08-01T05:47:32;25.60;99.90
17437;DHT22;8836;52.272;5.134;2022-08-01T05:49:59;25.60;99.90
17437;DHT22;8836;52.272;5.134;2022-08-01T05:52:26;25.60;99.90
17437;DHT22;8836;52.272;5.134;2022-08-01T05:54:54;25.90;99.90
17437;DHT22;8836;52.272;5.134;2022-08-01T05:57:21;25.60;99.90
17437;DHT22;8836;52.272;5.134;2022-08-01T05:59:47;25.60;99.90
17437;DHT22;8836;52.272;5.134;2022-08-01T06:02:16;25.60;99.90
17437;DHT22;8836;52.272;5.134;2022-08-01T06:04:44;25.70;99.90
17437;DHT22;8836;52.272;5.134;2022-08-01T06:07:14;25.70;99.90
17437;DHT22;8836;52.272;5.134;2022-08-01T06:09:41;25.70;99.90
17437;DHT22;8836;52.272;5.134;2022-08-01T06:12:08;25.70;99.90
17437;DHT22;8836;52.272;5.134;2022-08-01T06:14:35;25.70;99.90
17437;DHT22;8836;52.272;5.134;2022-08-01T06:17:02;25.70;99.90
17437;DHT22;8836;52.272;5.134;2022-08-01T06:19:31;25.70;99.90
17437;DHT22;8836;52.272;5.134;2022-08-01T06:21:58;25.70;99.90
17437;DHT22;8836;52.272;5.134;2022-08-01T06:24:25;25.80;99.90
17437;DHT22;8836;52.272;5.134;2022-08-01T06:26:52;25.70;99.90
17437;DHT22;8836;52.272;5.134;2022-08-01T06:29:19;25.70;99.90
17437;DHT22;8836;52.272;5.134;2022-08-01T06:31:46;25.70;99.90
17437;DHT22;8836;52.272;5.134;2022-08-01T06:34:12;25.70;99.90
17437;DHT22;8836;52.272;5.134;2022-08-01T06:36:42;25.70;99.90
17437;DHT22;8836;52.272;5.134;2022-08-01T06:39:08;25.70;99.90
17437;DHT22;8836;52.272;5.134;2022-08-01T06:41:36;25.70;99.90
17437;DHT22;8836;52.272;5.134;2022-08-01T06:44:03;25.70;99.90
17437;DHT22;8836;52.272;5.134;2022-08-01T06:46:31;25.70;99.90
17437;DHT22;8836;52.272;5.134;2022-08-01T06:48:58;25.70;99.90
17437;DHT22;8836;52.272;5.134;2022-08-01T06:51:25;25.70;99.90
17437;DHT22;8836;52.272;5.134;2022-08-01T06:53:53;25.70;99.90
17437;DHT22;8836;52.272;5.134;2022-08-01T06:56:20;25.70;99.90
17437;DHT22;8836;52.272;5.134;2022-08-01T06:58:47;25.70;99.90
17437;DHT22;8836;52.272;5.134;2022-08-01T07:01:15;25.70;99.90
17437;DHT22;8836;52.272;5.134;2022-08-01T07:03:42;25.70;99.90
17437;DHT22;8836;52.272;5.134;2022-08-01T07:06:11;28.80;99.90
17437;DHT22;8836;52.272;5.134;2022-08-01T07:08:40;25.70;99.90
17437;DHT22;8836;52.272;5.134;2022-08-01T07:11:09;25.60;99.90
17437;DHT22;8836;52.272;5.134;2022-08-01T07:13:36;25.40;99.90
17437;DHT22;8836;52.272;5.134;2022-08-01T07:16:03;25.40;99.90
17437;DHT22;8836;52.272;5.134;2022-08-01T07:18:30;25.40;99.90
17437;DHT22;8836;52.272;5.134;2022-08-01T07:20:57;25.50;99.90
17437;DHT22;8836;52.272;5.134;2022-08-01T07:23:24;25.40;99.90
17437;DHT22;8836;52.272;5.134;2022-08-01T07:25:51;25.20;99.90
17437;DHT22;8836;52.272;5.134;2022-08-01T07:28:20;25.10;99.90
17437;DHT22;8836;52.272;5.134;2022-08-01T07:30:47;24.90;99.90
17437;DHT22;8836;52.272;5.134;2022-08-01T07:33:14;24.80;99.90
17437;DHT22;8836;52.272;5.134;2022-08-01T07:35:42;24.70;99.90
17437;DHT22;8836;52.272;5.134;2022-08-01T07:38:09;24.60;99.90
17437;DHT22;8836;52.272;5.134;2022-08-01T07:40:36;24.30;99.90
17437;DHT22;8836;52.272;5.134;2022-08-01T07:43:03;24.00;99.90
17437;DHT22;8836;52.272;5.134;2022-08-01T07:45:31;24.00;99.90
17437;DHT22;8836;52.272;5.134;2022-08-01T07:48:02;24.20;99.90
17437;DHT22;8836;52.272;5.134;2022-08-01T07:50:29;24.30;99.90
17437;DHT22;8836;52.272;5.134;2022-08-01T07:52:56;24.30;99.90
17437;DHT22;8836;52.272;5.134;2022-08-01T07:55:23;24.50;99.90
17437;DHT22;8836;52.272;5.134;2022-08-01T07:57:51;24.60;99.90
17437;DHT22;8836;52.272;5.134;2022-08-01T08:00:18;24.70;99.90
17437;DHT22;8836;52.272;5.134;2022-08-01T08:02:46;24.70;99.90
17437;DHT22;8836;52.272;5.134;2022-08-01T08:05:15;24.80;99.90
17437;DHT22;8836;52.272;5.134;2022-08-01T08:07:42;24.90;99.90
17437;DHT22;8836;52.272;5.134;2022-08-01T08:10:10;24.90;99.90
17437;DHT22;8836;52.272;5.134;2022-08-01T08:12:37;24.90;99.90
17437;DHT22;8836;52.272;5.134;2022-08-01T08:15:05;24.80;99.90
17437;DHT22;8836;52.272;5.134;2022-08-01T08:17:32;24.60;99.90
17437;DHT22;8836;52.272;5.134;2022-08-01T08:20:03;24.20;99.90
17437;DHT22;8836;52.272;5.134;2022-08-01T08:22:31;23.90;99.90
17437;DHT22;8836;52.272;5.134;2022-08-01T08:24:58;23.90;99.90
17437;DHT22;8836;52.272;5.134;2022-08-01T08:27:25;24.00;99.90
17437;DHT22;8836;52.272;5.134;2022-08-01T08:29:52;24.20;99.90
17437;DHT22;8836;52.272;5.134;2022-08-01T08:32:19;24.30;99.90
17437;DHT22;8836;52.272;5.134;2022-08-01T08:34:47;25.50;99.90
17437;DHT22;8836;52.272;5.134;2022-08-01T08:37:19;24.50;99.90
17437;DHT22;8836;52.272;5.134;2022-08-01T08:39:46;24.50;99.90
17437;DHT22;8836;52.272;5.134;2022-08-01T08:42:13;24.50;99.90
17437;DHT22;8836;52.272;5.134;2022-08-01T08:44:41;24.50;99.90
17437;DHT22;8836;52.272;5.134;2022-08-01T08:47:11;24.40;99.90
17437;DHT22;8836;52.272;5.134;2022-08-01T08:49:39;24.40;99.90
17437;DHT22;8836;52.272;5.134;2022-08-01T08:52:10;24.20;99.90
17437;DHT22;8836;52.272;5.134;2022-08-01T08:54:41;24.00;99.90
17437;DHT22;8836;52.272;5.134;2022-08-01T08:57:10;24.00;99.90
17437;DHT22;8836;52.272;5.134;2022-08-01T08:59:40;24.00;99.90
17437;DHT22;8836;52.272;5.134;2022-08-01T09:02:09;24.10;99.90
17437;DHT22;8836;52.272;5.134;2022-08-01T09:04:38;24.00;99.90
17437;DHT22;8836;52.272;5.134;2022-08-01T09:07:06;24.00;99.90
17437;DHT22;8836;52.272;5.134;2022-08-01T09:09:34;23.90;99.90
17437;DHT22;8836;52.272;5.134;2022-08-01T09:12:04;23.90;99.90
17437;DHT22;8836;52.272;5.134;2022-08-01T09:14:32;23.90;99.90
17437;DHT22;8836;52.272;5.134;2022-08-01T09:17:02;23.90;99.90
17437;DHT22;8836;52.272;5.134;2022-08-01T09:19:36;24.00;99.90
17437;DHT22;8836;52.272;5.134;2022-08-01T09:22:06;24.00;99.90
17437;DHT22;8836;52.272;5.134;2022-08-01T09:24:35;23.90;99.90
17437;DHT22;8836;52.272;5.134;2022-08-01T09:27:17;23.80;99.90
17437;DHT22;8836;52.272;5.134;2022-08-01T09:29:45;25.40;99.90
17437;DHT22;8836;52.272;5.134;2022-08-01T09:32:12;23.70;99.90
17437;DHT22;8836;52.272;5.134;2022-08-01T09:34:39;23.70;99.90
17437;DHT22;8836;52.272;5.134;2022-08-01T09:37:06;23.70;99.90
17437;DHT22;8836;52.272;5.134;2022-08-01T09:39:35;23.60;99.90
17437;DHT22;8836;52.272;5.134;2022-08-01T09:42:21;23.60;99.90
17437;DHT22;8836;52.272;5.134;2022-08-01T09:44:49;23.60;99.90
17437;DHT22;8836;52.272;5.134;2022-08-01T09:47:18;23.60;99.90
17437;DHT22;8836;52.272;5.134;2022-08-01T09:49:54;23.80;99.90
17437;DHT22;8836;52.272;5.134;2022-08-01T09:52:24;23.20;99.90
17437;DHT22;8836;52.272;5.134;2022-08-01T09:54:54;23.70;99.90
17437;DHT22;8836;52.272;5.134;2022-08-01T09:57:25;23.70;99.90
17437;DHT22;8836;52.272;5.134;2022-08-01T09:59:55;23.70;99.90
17437;DHT22;8836;52.272;5.134;2022-08-01T10:02:32;23.70;99.90
17437;DHT22;8836;52.272;5.134;2022-08-01T10:05:02;23.70;99.90
17437;DHT22;8836;52.272;5.134;2022-08-01T10:07:31;23.60;99.90
17437;DHT22;8836;52.272;5.134;2022-08-01T10:10:09;23.70;99.90
17437;DHT22;8836;52.272;5.134;2022-08-01T10:12:40;23.90;99.90
17437;DHT22;8836;52.272;5.134;2022-08-01T10:15:09;23.90;99.90
17437;DHT22;8836;52.272;5.134;2022-08-01T10:17:39;23.90;99.90
17437;DHT22;8836;52.272;5.134;2022-08-01T10:20:12;24.00;99.90
17437;DHT22;8836;52.272;5.134;2022-08-01T10:22:42;24.00;99.90
17437;DHT22;8836;52.272;5.134;2022-08-01T10:25:10;24.00;99.90
17437;DHT22;8836;52.272;5.134;2022-08-01T10:27:43;24.00;99.90
17437;DHT22;8836;52.272;5.134;2022-08-01T10:30:12;24.10;99.90
17437;DHT22;8836;52.272;5.134;2022-08-01T10:32:41;24.00;99.90
17437;DHT22;8836;52.272;5.134;2022-08-01T10:35:09;24.00;99.90
17437;DHT22;8836;52.272;5.134;2022-08-01T10:37:42;24.00;99.90
17437;DHT22;8836;52.272;5.134;2022-08-01T10:40:11;24.00;99.90
17437;DHT22;8836;52.272;5.134;2022-08-01T10:42:42;24.00;99.90
17437;DHT22;8836;52.272;5.134;2022-08-01T10:45:14;24.10;99.90
17437;DHT22;8836;52.272;5.134;2022-08-01T10:47:47;24.10;99.90
17437;DHT22;8836;52.272;5.134;2022-08-01T10:50:23;24.00;99.90
17437;DHT22;8836;52.272;5.134;2022-08-01T10:53:10;24.00;99.90
17437;DHT22;8836;52.272;5.134;2022-08-01T10:55:51;24.00;99.90
17437;DHT22;8836;52.272;5.134;2022-08-01T10:58:26;24.00;99.90
17437;DHT22;8836;52.272;5.134;2022-08-01T11:01:29;24.10;99.90
17437;DHT22;8836;52.272;5.134;2022-08-01T11:04:09;24.00;99.90
17437;DHT22;8836;52.272;5.134;2022-08-01T11:06:49;23.90;99.90
17437;DHT22;8836;52.272;5.134;2022-08-01T11:09:26;23.90;99.90
17437;DHT22;8836;52.272;5.134;2022-08-01T11:12:00;23.90;99.90
17437;DHT22;8836;52.272;5.134;2022-08-01T11:14:33;23.90;99.90
17437;DHT22;8836;52.272;5.134;2022-08-01T11:20:07;23.80;99.90
17437;DHT22;8836;52.272;5.134;2022-08-01T11:26:16;23.90;99.90
17437;DHT22;8836;52.272;5.134;2022-08-01T11:28:45;23.80;99.20
17437;DHT22;8836;52.272;5.134;2022-08-01T11:31:34;23.80;99.60
17437;DHT22;8836;52.272;5.134;2022-08-01T11:34:01;23.90;99.70
17437;DHT22;8836;52.272;5.134;2022-08-01T11:36:28;23.90;99.90
17437;DHT22;8836;52.272;5.134;2022-08-01T11:39:16;23.90;99.70
17437;DHT22;8836;52.272;5.134;2022-08-01T11:41:46;23.90;99.90
17437;DHT22;8836;52.272;5.134;2022-08-01T11:44:22;23.90;99.80
17437;DHT22;8836;52.272;5.134;2022-08-01T11:46:58;24.00;99.70
17437;DHT22;8836;52.272;5.134;2022-08-01T11:49:45;24.00;99.70
17437;DHT22;8836;52.272;5.134;2022-08-01T11:52:18;24.10;99.60
17437;DHT22;8836;52.272;5.134;2022-08-01T11:54:51;24.20;99.40
17437;DHT22;8836;52.272;5.134;2022-08-01T11:57:20;24.20;99.30
17437;DHT22;8836;52.272;5.134;2022-08-01T11:59:51;24.30;98.90
17437;DHT22;8836;52.272;5.134;2022-08-01T12:02:24;24.40;99.10
17437;DHT22;8836;52.272;5.134;2022-08-01T12:04:57;24.50;99.00
17437;DHT22;8836;52.272;5.134;2022-08-01T12:07:28;24.50;98.90
17437;DHT22;8836;52.272;5.134;2022-08-01T12:09:59;24.60;98.80
17437;DHT22;8836;52.272;5.134;2022-08-01T12:12:28;24.60;98.10
17437;DHT22;8836;52.272;5.134;2022-08-01T12:14:58;24.50;97.80
17437;DHT22;8836;52.272;5.134;2022-08-01T12:17:32;24.40;97.80
17437;DHT22;8836;52.272;5.134;2022-08-01T12:20:02;24.30;97.60
17437;DHT22;8836;52.272;5.134;2022-08-01T12:22:32;24.20;97.80
17437;DHT22;8836;52.272;5.134;2022-08-01T12:25:05;24.20;98.20
17437;DHT22;8836;52.272;5.134;2022-08-01T12:27:37;24.20;97.80
17437;DHT22;8836;52.272;5.134;2022-08-01T12:30:07;24.20;98.00
17437;DHT22;8836;52.272;5.134;2022-08-01T12:32:40;24.30;98.10
17437;DHT22;8836;52.272;5.134;2022-08-01T12:35:09;24.40;97.90
17437;DHT22;8836;52.272;5.134;2022-08-01T12:37:40;24.40;98.00
17437;DHT22;8836;52.272;5.134;2022-08-01T12:40:12;24.50;98.50
17437;DHT22;8836;52.272;5.134;2022-08-01T12:42:45;24.50;97.90
17437;DHT22;8836;52.272;5.134;2022-08-01T12:45:20;25.20;98.30
17437;DHT22;8836;52.272;5.134;2022-08-01T12:47:52;24.40;97.90
17437;DHT22;8836;52.272;5.134;2022-08-01T12:50:22;25.60;98.40
17437;DHT22;8836;52.272;5.134;2022-08-01T12:52:50;24.60;97.80
17437;DHT22;8836;52.272;5.134;2022-08-01T12:55:20;24.70;97.00
17437;DHT22;8836;52.272;5.134;2022-08-01T12:57:48;24.70;97.00
17437;DHT22;8836;52.272;5.134;2022-08-01T13:00:22;24.70;97.20
17437;DHT22;8836;52.272;5.134;2022-08-01T13:03:02;24.70;96.60
17437;DHT22;8836;52.272;5.134;2022-08-01T13:05:41;24.70;96.10
17437;DHT22;8836;52.272;5.134;2022-08-01T13:08:11;24.60;95.40
17437;DHT22;8836;52.272;5.134;2022-08-01T13:10:39;24.90;95.90
17437;DHT22;8836;52.272;5.134;2022-08-01T13:13:08;24.70;95.10
17437;DHT22;8836;52.272;5.134;2022-08-01T13:15:37;24.70;94.60
17437;DHT22;8836;52.272;5.134;2022-08-01T13:18:25;24.70;94.80
17437;DHT22;8836;52.272;5.134;2022-08-01T13:21:10;24.70;94.20
17437;DHT22;8836;52.272;5.134;2022-08-01T13:23:38;24.70;94.60
17437;DHT22;8836;52.272;5.134;2022-08-01T13:26:06;24.60;95.20
17437;DHT22;8836;52.272;5.134;2022-08-01T13:28:34;24.50;95.70
17437;DHT22;8836;52.272;5.134;2022-08-01T13:31:04;24.60;95.60
17437;DHT22;8836;52.272;5.134;2022-08-01T13:33:45;24.70;95.10
17437;DHT22;8836;52.272;5.134;2022-08-01T13:36:14;24.70;95.30
17437;DHT22;8836;52.272;5.134;2022-08-01T13:38:42;24.70;95.20
17437;DHT22;8836;52.272;5.134;2022-08-01T13:41:26;24.70;94.70
17437;DHT22;8836;52.272;5.134;2022-08-01T13:43:53;24.60;94.90
17437;DHT22;8836;52.272;5.134;2022-08-01T13:46:20;24.70;94.50
17437;DHT22;8836;52.272;5.134;2022-08-01T13:48:49;24.70;94.40
17437;DHT22;8836;52.272;5.134;2022-08-01T13:51:16;24.70;93.50
17437;DHT22;8836;52.272;5.134;2022-08-01T13:53:43;24.50;93.90
17437;DHT22;8836;52.272;5.134;2022-08-01T13:56:10;24.40;94.30
17437;DHT22;8836;52.272;5.134;2022-08-01T13:58:37;24.40;94.70
17437;DHT22;8836;52.272;5.134;2022-08-01T14:01:04;24.60;94.50
17437;DHT22;8836;52.272;5.134;2022-08-01T14:03:31;24.30;94.30
17437;DHT22;8836;52.272;5.134;2022-08-01T14:06:00;24.30;94.50
17437;DHT22;8836;52.272;5.134;2022-08-01T14:08:27;24.30;94.50
17437;DHT22;8836;52.272;5.134;2022-08-01T14:10:54;24.30;94.60
17437;DHT22;8836;52.272;5.134;2022-08-01T14:13:24;24.30;94.20
17437;DHT22;8836;52.272;5.134;2022-08-01T14:15:52;24.30;94.30
17437;DHT22;8836;52.272;5.134;2022-08-01T14:18:19;24.30;94.40
17437;DHT22;8836;52.272;5.134;2022-08-01T14:20:47;24.40;94.70
17437;DHT22;8836;52.272;5.134;2022-08-01T14:23:15;24.50;94.10
17437;DHT22;8836;52.272;5.134;2022-08-01T14:25:42;24.50;94.40
17437;DHT22;8836;52.272;5.134;2022-08-01T14:28:10;24.50;94.60
17437;DHT22;8836;52.272;5.134;2022-08-01T14:30:37;24.60;94.60
17437;DHT22;8836;52.272;5.134;2022-08-01T14:33:04;24.50;94.70
17437;DHT22;8836;52.272;5.134;2022-08-01T14:35:31;24.60;94.90
17437;DHT22;8836;52.272;5.134;2022-08-01T14:37:58;24.60;94.50
17437;DHT22;8836;52.272;5.134;2022-08-01T14:40:27;24.60;94.20
17437;DHT22;8836;52.272;5.134;2022-08-01T14:42:54;24.50;94.00
17437;DHT22;8836;52.272;5.134;2022-08-01T14:45:21;24.50;94.30
17437;DHT22;8836;52.272;5.134;2022-08-01T14:47:48;24.50;94.50
17437;DHT22;8836;52.272;5.134;2022-08-01T14:50:15;24.50;94.10
17437;DHT22;8836;52.272;5.134;2022-08-01T14:52:42;24.40;93.50
17437;DHT22;8836;52.272;5.134;2022-08-01T14:55:10;24.50;93.90
17437;DHT22;8836;52.272;5.134;2022-08-01T14:57:40;24.50;94.10
17437;DHT22;8836;52.272;5.134;2022-08-01T15:00:09;24.50;93.90
17437;DHT22;8836;52.272;5.134;2022-08-01T15:02:38;24.30;92.90
17437;DHT22;8836;52.272;5.134;2022-08-01T15:05:06;24.30;93.00
17437;DHT22;8836;52.272;5.134;2022-08-01T15:07:35;24.30;92.70
17437;DHT22;8836;52.272;5.134;2022-08-01T15:10:04;24.20;92.60
17437;DHT22;8836;52.272;5.134;2022-08-01T15:12:32;24.30;92.90
17437;DHT22;8836;52.272;5.134;2022-08-01T15:15:00;24.40;93.10
17437;DHT22;8836;52.272;5.134;2022-08-01T15:17:29;24.50;92.90
17437;DHT22;8836;52.272;5.134;2022-08-01T15:20:00;24.50;93.20
17437;DHT22;8836;52.272;5.134;2022-08-01T15:22:29;24.50;93.40
17437;DHT22;8836;52.272;5.134;2022-08-01T15:24:58;24.60;93.30
17437;DHT22;8836;52.272;5.134;2022-08-01T15:27:26;24.50;92.50
17437;DHT22;8836;52.272;5.134;2022-08-01T15:29:55;24.50;92.90
17437;DHT22;8836;52.272;5.134;2022-08-01T15:32:24;24.50;93.10
17437;DHT22;8836;52.272;5.134;2022-08-01T15:34:51;24.40;92.30
17437;DHT22;8836;52.272;5.134;2022-08-01T15:37:18;24.30;91.70
17437;DHT22;8836;52.272;5.134;2022-08-01T15:39:45;24.40;91.80
17437;DHT22;8836;52.272;5.134;2022-08-01T15:42:15;24.10;92.30
17437;DHT22;8836;52.272;5.134;2022-08-01T15:44:44;24.20;92.90
17437;DHT22;8836;52.272;5.134;2022-08-01T15:47:12;24.30;93.10
17437;DHT22;8836;52.272;5.134;2022-08-01T15:49:42;24.30;93.00
17437;DHT22;8836;52.272;5.134;2022-08-01T15:52:12;24.30;92.80
17437;DHT22;8836;52.272;5.134;2022-08-01T15:54:39;24.30;92.70
17437;DHT22;8836;52.272;5.134;2022-08-01T15:57:06;24.20;92.80
17437;DHT22;8836;52.272;5.134;2022-08-01T15:59:35;24.20;92.80
17437;DHT22;8836;52.272;5.134;2022-08-01T16:02:02;24.30;92.80
17437;DHT22;8836;52.272;5.134;2022-08-01T16:04:29;24.30;92.80
17437;DHT22;8836;52.272;5.134;2022-08-01T16:06:57;24.20;93.20
17437;DHT22;8836;52.272;5.134;2022-08-01T16:09:24;24.20;93.30